• Join FlightAware (Why Join?)
  • Login
  • US Flag 
10:30PM EDT


 

Airport Tracker/Info


-or-


 

Live Flight TrackerFlight Track Log ✈ GLA154 ✈ 25-Apr-2013 ✈ KPRC - KIGM

Flight Track Log - Related Links

Times and Time Zones

All times are in EDT time to prevent confusion due to time zone crossing. See the GLA154 flight status page for this flight to view local times or setup timezone preferences in your user account.

Time Position Orientation Groundspeed Altitude Reporting Facility
EDT Latitude Longitude Course Direction KTS MPH feet Rate Location/Type
09:32AM 34.6464 -112.4694 312° West 210 242 6,900  Level Albuquerque Center
09:33AM 34.6992 -112.4878 344° North 195 224 8,700 1,740 Climbing Albuquerque Center
09:34AM 34.7475 -112.5275 326° Northwest 208 239 10,500 1,680 Climbing Albuquerque Center
09:35AM 34.7806 -112.5864 304° West 209 241 12,200 1,620 Climbing Albuquerque Center
09:36AM 34.8075 -112.6533 296° West 217 250 13,800 1,440 Climbing Albuquerque Center
09:37AM 34.9501 -112.7333 321° Northwest  Level FlightAware Approximate
09:37AM 34.8386 -112.7200 300° West 225 259 15,200  Level Albuquerque Center
09:38AM 34.9990 -112.7876 312° West  Level FlightAware Approximate
09:38AM 34.8772 -112.8050 299° West 236 272 16,000  Level Albuquerque Center
09:39AM 34.9114 -112.8883 297° West 264 304 16,000  Level Albuquerque Center
09:40AM 34.9467 -112.9686 298° West 268 308 16,000  Level Albuquerque Center
09:41AM 34.9847 -113.0481 300° West 270 311 16,000  Level Albuquerque Center
09:42AM 35.0133 -113.1331 292° West 270 311 16,000  Level Albuquerque Center
09:43AM 35.0347 -113.2186 287° West 267 307 16,000  Level Albuquerque Center
09:45AM 35.0625 -113.3019 292° West 265 305 16,000  Level Albuquerque Center
09:46AM 35.0989 -113.3814 299° West 266 306 16,000 -660 Level Albuquerque Center
09:47AM 35.1353 -113.4606 299° West 266 306 14,700 -1,380 Descending Albuquerque Center
09:48AM 35.1722 -113.5589 295° West 266 306 13,000 -1,500 Descending Los Angeles Center
09:49AM 35.2011 -113.6419 293° West 267 307 11,500 -1,860 Descending Los Angeles Center
09:50AM 35.2250 -113.7269 289° West 267 307 9,200 -1,620 Descending Los Angeles Center
09:51AM 35.2503 -113.8214 288° West 265 305 8,300 -900 Descending Los Angeles Center